createdAt,value
2022-08-12T00:02:17.147Z,100733.78
2022-08-12T00:05:01.268Z,100737.34
2022-08-12T00:07:46.732Z,100717.81
2022-08-12T00:10:31.138Z,100740.41
2022-08-12T00:13:13.421Z,100737.22
2022-08-12T00:15:58.981Z,100738.44
2022-08-12T00:18:42.259Z,100742.25
2022-08-12T00:21:28.126Z,100750.38
2022-08-12T00:24:10.321Z,100743.66
2022-08-12T00:26:58.720Z,100745.31
2022-08-12T00:29:43.635Z,100741.72
2022-08-12T00:32:35.503Z,100749.41
2022-08-12T00:35:20.503Z,100752.78
2022-08-12T00:38:05.900Z,100746.63
2022-08-12T00:40:48.184Z,100732.97
2022-08-12T00:43:20.180Z,100744.00
2022-08-12T00:46:03.662Z,100728.47
2022-08-12T00:48:33.751Z,100748.38
2022-08-12T00:51:06.255Z,100735.28
2022-08-12T00:53:36.948Z,100748.44
2022-08-12T00:56:08.235Z,100744.28
2022-08-12T00:58:47.389Z,100742.59
2022-08-12T01:01:18.195Z,100740.56
2022-08-12T01:04:04.789Z,100737.81
2022-08-12T01:06:51.073Z,100738.63
2022-08-12T01:09:38.204Z,100742.16
2022-08-12T01:12:11.512Z,100744.16
2022-08-12T01:14:44.172Z,100746.00
2022-08-12T01:17:13.519Z,100726.34
2022-08-12T01:19:43.121Z,100740.16
2022-08-12T01:22:27.629Z,100740.16
2022-08-12T01:25:07.466Z,100744.53
2022-08-12T01:27:40.409Z,100749.53
2022-08-12T01:30:12.720Z,100752.06
2022-08-12T01:32:43.507Z,100757.16
2022-08-12T01:35:15.649Z,100759.63
2022-08-12T01:37:51.854Z,100764.81
2022-08-12T01:40:34.147Z,100766.75
2022-08-12T01:43:09.877Z,100766.13
2022-08-12T01:45:46.047Z,100762.06
2022-08-12T01:48:26.753Z,100757.97
2022-08-12T01:51:06.167Z,100762.47
2022-08-12T01:53:50.559Z,100766.06
2022-08-12T01:56:27.218Z,100766.13
2022-08-12T01:59:16.872Z,100767.88
2022-08-12T02:01:48.169Z,100766.09
2022-08-12T02:04:38.735Z,100762.59
2022-08-12T02:07:33.554Z,100766.06
2022-08-12T02:10:49.141Z,100766.91
2022-08-12T02:13:59.709Z,100766.72
2022-08-12T02:16:48.273Z,100767.50
2022-08-12T02:19:36.828Z,100771.91
2022-08-12T02:22:18.766Z,100769.38
2022-08-12T02:24:48.481Z,100777.00
2022-08-12T02:27:21.279Z,100770.13
2022-08-12T02:29:52.931Z,100736.47
2022-08-12T02:32:23.816Z,100768.22
2022-08-12T02:34:57.139Z,100773.34
2022-08-12T02:37:29.871Z,100772.47
2022-08-12T02:40:01.987Z,100779.25
2022-08-12T02:42:35.818Z,100767.00
2022-08-12T02:45:10.561Z,100780.53
2022-08-12T02:47:59.770Z,100772.59
2022-08-12T02:50:33.454Z,100780.25
2022-08-12T02:53:04.355Z,100776.75
2022-08-12T02:55:36.930Z,100773.09
2022-08-12T02:58:09.112Z,100766.94
2022-08-12T03:00:45.562Z,100771.16
2022-08-12T03:03:16.533Z,100772.88
2022-08-12T03:05:53.315Z,100775.47
2022-08-12T03:08:32.651Z,100778.88
2022-08-12T03:11:11.906Z,100771.94
2022-08-12T03:13:47.611Z,100775.28
2022-08-12T03:16:20.230Z,100764.81
2022-08-12T03:18:51.680Z,100775.91
2022-08-12T03:21:57.856Z,100774.91
2022-08-12T03:24:18.319Z,100759.97
2022-08-12T03:26:50.105Z,100763.22
2022-08-12T03:29:22.885Z,100740.75
2022-08-12T03:32:01.268Z,100762.28
2022-08-12T03:34:36.181Z,100759.50
2022-08-12T03:37:07.300Z,100762.81
2022-08-12T03:39:44.847Z,100764.38
2022-08-12T03:42:28.657Z,100767.56
2022-08-12T03:45:23.189Z,100766.66
2022-08-12T03:48:18.598Z,100765.66
2022-08-12T03:51:02.244Z,100754.38
2022-08-12T03:53:46.005Z,100757.63
2022-08-12T03:56:28.421Z,100760.88
2022-08-12T03:59:13.126Z,100767.78
2022-08-12T04:01:42.310Z,100762.28
2022-08-12T04:04:14.856Z,100772.25
2022-08-12T04:06:46.630Z,100778.66
2022-08-12T04:09:16.747Z,100763.13
2022-08-12T04:12:06.138Z,100774.72
2022-08-12T04:14:37.257Z,100767.00
2022-08-12T04:17:07.951Z,100772.63
2022-08-12T04:19:39.343Z,100770.47
2022-08-12T04:22:09.601Z,100771.63
2022-08-12T04:24:40.896Z,100759.47
2022-08-12T04:27:10.516Z,100764.69
2022-08-12T04:30:30.427Z,100765.03
2022-08-12T04:32:33.664Z,100774.63
2022-08-12T04:35:05.649Z,100770.00
2022-08-12T04:37:58.776Z,100771.72
2022-08-12T04:40:28.029Z,100770.28
2022-08-12T04:43:00.838Z,100764.34
2022-08-12T04:45:30.070Z,100766.56
2022-08-12T04:47:59.249Z,100759.59
2022-08-12T04:50:35.721Z,100748.97
2022-08-12T04:53:08.488Z,100763.31
2022-08-12T04:55:42.688Z,100751.78
2022-08-12T04:58:12.330Z,100760.91
2022-08-12T05:00:44.359Z,100763.59
2022-08-12T05:03:14.654Z,100750.78
2022-08-12T05:05:46.083Z,100761.34
2022-08-12T05:08:17.491Z,100758.72
2022-08-12T05:10:48.461Z,100758.59
2022-08-12T05:13:21.062Z,100761.03
2022-08-12T05:16:03.839Z,100753.03
2022-08-12T05:18:39.242Z,100757.91
2022-08-12T05:21:11.583Z,100752.28
2022-08-12T05:23:42.643Z,100752.88
2022-08-12T05:26:13.096Z,100756.16
2022-08-12T05:28:42.734Z,100757.63
2022-08-12T05:31:12.078Z,100767.06
2022-08-12T05:33:41.671Z,100765.13
2022-08-12T05:36:14.554Z,100763.94
2022-08-12T05:38:57.836Z,100755.75
2022-08-12T05:41:28.678Z,100761.75
2022-08-12T05:44:01.036Z,100755.53
2022-08-12T05:46:32.004Z,100753.56
2022-08-12T05:49:02.384Z,100744.59
2022-08-12T05:51:39.710Z,100743.38
2022-08-12T05:54:12.530Z,100753.72
2022-08-12T05:56:42.490Z,100737.94
2022-08-12T05:59:13.662Z,100751.34
2022-08-12T06:02:11.981Z,100747.53
2022-08-12T06:04:34.196Z,100755.97
2022-08-12T06:07:59.199Z,100748.91
2022-08-12T06:09:58.402Z,100759.00
2022-08-12T06:12:30.560Z,100745.63
2022-08-12T06:14:59.933Z,100753.44
2022-08-12T06:17:30.666Z,100752.94
2022-08-12T06:20:25.966Z,100749.97
2022-08-12T06:22:54.150Z,100746.25
2022-08-12T06:25:28.668Z,100747.84
2022-08-12T06:28:07.651Z,100744.88
2022-08-12T06:30:40.248Z,100744.44
2022-08-12T06:33:18.413Z,100741.66
2022-08-12T06:35:51.998Z,100737.03
2022-08-12T06:38:25.177Z,100715.66
2022-08-12T06:41:09.553Z,100742.81
2022-08-12T06:44:05.890Z,100737.31
2022-08-12T06:46:30.924Z,100742.84
2022-08-12T06:49:00.864Z,100738.16
2022-08-12T06:51:32.929Z,100741.38
2022-08-12T06:54:27.061Z,100724.75
2022-08-12T06:58:05.662Z,100723.03
2022-08-12T06:59:50.583Z,100738.00
2022-08-12T07:02:22.577Z,100739.50
2022-08-12T07:04:52.210Z,100735.56
2022-08-12T07:07:21.403Z,100733.69
2022-08-12T07:09:58.040Z,100731.44
2022-08-12T07:12:37.130Z,100719.91
2022-08-12T07:15:08.003Z,100733.53
2022-08-12T07:17:40.441Z,100734.78
2022-08-12T07:20:29.838Z,100735.34
2022-08-12T07:23:03.721Z,100732.63
2022-08-12T07:25:37.688Z,100736.03
2022-08-12T07:28:15.990Z,100735.50
2022-08-12T07:30:48.073Z,100735.81
2022-08-12T07:33:17.686Z,100739.16
2022-08-12T07:35:50.640Z,100723.75
2022-08-12T07:38:29.426Z,100730.34
2022-08-12T07:41:05.778Z,100731.47
2022-08-12T07:43:39.212Z,100728.69
2022-08-12T07:46:10.421Z,100734.75
2022-08-12T07:48:42.062Z,100732.66
2022-08-12T07:51:11.950Z,100728.56
2022-08-12T07:54:00.734Z,100727.38
2022-08-12T07:56:34.451Z,100719.78
2022-08-12T07:59:03.884Z,100723.94
2022-08-12T08:01:34.593Z,100706.66
2022-08-12T08:04:19.359Z,100724.59
2022-08-12T08:06:50.132Z,100704.63
2022-08-12T08:09:23.453Z,100717.47
2022-08-12T08:12:09.037Z,100716.34
2022-08-12T08:14:40.119Z,100714.28
2022-08-12T08:17:09.960Z,100709.44
2022-08-12T08:20:02.291Z,100708.25
2022-08-12T08:22:41.579Z,100701.22
2022-08-12T08:25:34.826Z,100699.34
2022-08-12T08:28:06.816Z,100700.22
2022-08-12T08:30:38.596Z,100706.03
2022-08-12T08:33:22.927Z,100711.66
2022-08-12T08:35:54.374Z,100703.53
2022-08-12T08:38:32.011Z,100705.06
2022-08-12T08:42:15.682Z,100703.97
2022-08-12T08:44:10.288Z,100702.78
2022-08-12T08:46:39.483Z,100700.69
2022-08-12T08:49:08.990Z,100690.81
2022-08-12T08:51:38.577Z,100704.44
2022-08-12T08:54:11.084Z,100709.72
2022-08-12T08:56:49.624Z,100693.38
2022-08-12T08:59:21.977Z,100686.09
2022-08-12T09:01:51.314Z,100695.84
2022-08-12T09:05:13.510Z,100685.91
2022-08-12T09:07:51.267Z,100688.56
2022-08-12T09:10:15.526Z,100683.78
2022-08-12T09:16:02.034Z,100685.41
2022-08-12T09:18:34.045Z,100673.94
2022-08-12T09:21:06.398Z,100680.94
2022-08-12T09:23:57.394Z,100680.41
2022-08-12T09:26:28.852Z,100670.31
2022-08-12T09:29:00.642Z,100667.28
2022-08-12T09:32:04.065Z,100668.03
2022-08-12T09:34:33.276Z,100674.75
2022-08-12T09:37:20.099Z,100671.78
2022-08-12T09:40:06.092Z,100674.97
2022-08-12T09:43:15.253Z,100673.16
2022-08-12T09:46:06.524Z,100657.22
2022-08-12T09:48:44.670Z,100660.75
2022-08-12T09:51:38.204Z,100663.09
2022-08-12T09:54:31.641Z,100654.63
2022-08-12T09:58:45.593Z,100642.41
2022-08-12T10:00:17.453Z,100659.53
2022-08-12T10:03:02.090Z,100652.56
2022-08-12T10:06:26.848Z,100644.69
2022-08-12T10:08:30.275Z,100637.88
2022-08-12T10:11:18.620Z,100645.25
2022-08-12T10:13:52.323Z,100636.75
2022-08-12T10:16:23.781Z,100640.81
2022-08-12T10:18:56.031Z,100641.56
2022-08-12T10:21:36.305Z,100630.88
2022-08-12T10:24:08.570Z,100631.84
2022-08-12T10:26:52.716Z,100631.38
2022-08-12T10:30:03.669Z,100619.25
2022-08-12T10:32:44.402Z,100630.22
2022-08-12T10:35:19.293Z,100626.28
2022-08-12T10:38:37.521Z,100614.72
2022-08-12T10:41:01.401Z,100618.78
2022-08-12T10:43:54.159Z,100614.16
2022-08-12T10:46:31.049Z,100599.78
2022-08-12T10:49:05.366Z,100617.94
2022-08-12T10:52:03.399Z,100618.78
2022-08-12T10:54:27.710Z,100615.00
2022-08-12T10:56:57.434Z,100614.28
2022-08-12T11:00:31.778Z,100599.72
2022-08-12T11:04:24.119Z,100597.19
2022-08-12T11:07:09.588Z,100594.91
2022-08-12T11:08:34.942Z,100598.41
2022-08-12T11:10:53.069Z,100596.94
2022-08-12T11:13:46.921Z,100589.13
2022-08-12T11:16:22.522Z,100584.22
2022-08-12T11:18:55.271Z,100570.63
2022-08-12T11:21:56.235Z,100573.50
2022-08-12T11:24:30.414Z,100582.31
2022-08-12T11:27:07.657Z,100579.69
2022-08-12T11:30:05.904Z,100572.09
2022-08-12T11:32:29.516Z,100570.22
2022-08-12T11:35:09.163Z,100564.53
2022-08-12T11:37:57.655Z,100564.41
2022-08-12T11:40:29.894Z,100560.72
2022-08-12T11:43:18.784Z,100544.56
2022-08-12T11:45:53.291Z,100548.72
2022-08-12T11:48:26.717Z,100551.91
2022-08-12T11:50:59.009Z,100551.06
2022-08-12T11:53:56.398Z,100556.66
2022-08-12T11:56:17.373Z,100551.28
2022-08-12T12:02:02.016Z,100539.31
2022-08-12T12:04:29.475Z,100534.75
2022-08-12T12:07:07.458Z,100533.72
2022-08-12T12:09:52.814Z,100530.13
2022-08-12T12:12:25.262Z,100527.25
2022-08-12T12:15:00.485Z,100528.09
2022-08-12T12:17:38.807Z,100530.84
2022-08-12T12:20:10.442Z,100522.69
2022-08-12T12:22:41.572Z,100512.81
2022-08-12T12:25:14.550Z,100516.56
2022-08-12T12:28:05.769Z,100516.19
2022-08-12T12:30:38.473Z,100483.69
2022-08-12T12:33:08.150Z,100512.59
2022-08-12T12:36:17.122Z,100512.84
2022-08-12T12:38:29.799Z,100505.03
2022-08-12T12:40:59.013Z,100505.47
2022-08-12T12:43:42.491Z,100504.31
2022-08-12T12:46:14.821Z,100506.97
2022-08-12T12:48:44.858Z,100498.06
2022-08-12T12:57:36.145Z,100504.81
2022-08-12T13:00:19.273Z,100501.00
2022-08-12T13:02:55.225Z,100498.88
2022-08-12T13:05:28.262Z,100498.66
2022-08-12T13:08:00.644Z,100492.63
2022-08-12T13:10:37.110Z,100483.69
2022-08-12T13:14:08.161Z,100495.69
2022-08-12T13:15:59.959Z,100484.88
2022-08-12T13:18:36.365Z,100500.41
2022-08-12T13:21:15.871Z,100493.28
2022-08-12T13:23:58.717Z,100481.53
2022-08-12T13:26:32.637Z,100486.78
2022-08-12T13:29:05.418Z,100476.03
2022-08-12T13:31:36.264Z,100479.03
2022-08-12T13:34:33.583Z,100479.88
2022-08-12T13:37:09.176Z,100478.50
2022-08-12T13:39:39.786Z,100481.78
2022-08-12T13:42:14.686Z,100474.78
2022-08-12T13:44:46.775Z,100480.00
2022-08-12T13:47:19.439Z,100473.19
2022-08-12T13:49:53.681Z,100470.84
2022-08-12T13:52:25.685Z,100469.88
2022-08-12T13:54:56.636Z,100464.59
2022-08-12T13:57:27.072Z,100468.41
2022-08-12T14:00:13.836Z,100469.38
2022-08-12T14:02:44.569Z,100464.06
2022-08-12T14:05:38.395Z,100462.56
2022-08-12T14:08:05.624Z,100460.13
2022-08-12T14:10:50.896Z,100439.91
2022-08-12T14:14:03.375Z,100460.63
2022-08-12T14:16:37.525Z,100463.47
2022-08-12T14:19:10.605Z,100449.25
2022-08-12T14:22:01.633Z,100441.91
2022-08-12T14:24:36.645Z,100439.91
2022-08-12T14:27:11.666Z,100444.25
2022-08-12T14:30:03.982Z,100450.31
2022-08-12T14:32:36.602Z,100438.13
2022-08-12T14:35:06.310Z,100455.22
2022-08-12T14:37:56.713Z,100445.19
2022-08-12T14:40:30.431Z,100456.13
2022-08-12T14:42:59.890Z,100455.63
2022-08-12T14:45:44.260Z,100449.78
2022-08-12T14:48:24.424Z,100449.97
2022-08-12T14:51:30.369Z,100450.28
2022-08-12T14:55:36.209Z,100458.34
2022-08-12T14:57:19.438Z,100453.88
2022-08-12T14:59:56.478Z,100458.25
2022-08-12T15:02:28.110Z,100459.66
2022-08-12T15:05:01.856Z,100462.47
2022-08-12T15:07:48.708Z,100441.47
2022-08-12T15:10:32.474Z,100460.25
2022-08-12T15:13:07.361Z,100434.56
2022-08-12T15:15:43.983Z,100464.03
2022-08-12T15:18:21.117Z,100463.41
2022-08-12T15:20:55.493Z,100464.25
2022-08-12T15:23:29.131Z,100449.75
2022-08-12T15:26:04.691Z,100453.91
2022-08-12T15:28:36.788Z,100464.09
2022-08-12T15:31:09.575Z,100451.38
2022-08-12T15:33:51.302Z,100460.38
2022-08-12T15:36:54.635Z,100460.59
2022-08-12T15:39:17.154Z,100463.25
2022-08-12T15:41:49.144Z,100459.66
2022-08-12T15:44:37.835Z,100457.28
2022-08-12T15:47:10.339Z,100456.19
2022-08-12T15:49:54.710Z,100454.91
2022-08-12T15:52:40.766Z,100463.16
2022-08-12T15:55:16.757Z,100459.31
2022-08-12T15:57:53.891Z,100458.78
2022-08-12T16:00:33.366Z,100465.03
2022-08-12T16:03:08.452Z,100459.78
2022-08-12T16:06:15.678Z,100450.69
2022-08-12T16:08:39.341Z,100453.13
2022-08-12T16:11:15.580Z,100439.19
2022-08-12T16:13:55.698Z,100383.91
2022-08-12T16:16:25.334Z,100452.72
2022-08-12T16:19:00.774Z,100459.63
2022-08-12T16:21:50.355Z,100449.91
2022-08-12T16:24:23.967Z,100455.13
2022-08-12T16:26:55.147Z,100456.06
2022-08-12T16:29:49.392Z,100465.16
2022-08-12T16:32:24.282Z,100451.19
2022-08-12T16:34:58.739Z,100472.88
2022-08-12T16:38:25.219Z,100468.44
2022-08-12T16:40:25.938Z,100453.91
2022-08-12T16:43:01.975Z,100459.78
2022-08-12T16:46:23.521Z,100454.66
2022-08-12T16:48:35.339Z,100469.59
2022-08-12T16:51:10.110Z,100469.94
2022-08-12T16:53:43.660Z,100438.19
2022-08-12T16:56:18.243Z,100476.19
2022-08-12T16:58:48.955Z,100476.75
2022-08-12T17:01:21.802Z,100467.84
2022-08-12T17:04:08.649Z,100473.72
2022-08-12T17:06:43.229Z,100479.06
2022-08-12T17:09:18.046Z,100476.72
2022-08-12T17:11:53.350Z,100487.31
2022-08-12T17:14:24.875Z,100482.38
2022-08-12T17:17:01.099Z,100474.38
2022-08-12T17:20:29.642Z,100471.50
2022-08-12T17:22:25.732Z,100477.75
2022-08-12T17:25:02.424Z,100472.78
2022-08-12T17:27:40.142Z,100472.56
2022-08-12T17:30:13.360Z,100480.84
2022-08-12T17:32:53.284Z,100456.84
2022-08-12T17:35:30.021Z,100464.66
2022-08-12T17:38:09.595Z,100479.16
2022-08-12T17:40:42.347Z,100482.06
2022-08-12T17:43:54.923Z,100489.63
2022-08-12T17:46:13.152Z,100476.84
2022-08-12T17:49:18.817Z,100482.00
2022-08-12T17:52:02.728Z,100482.66
2022-08-12T17:54:34.306Z,100484.69
2022-08-12T17:57:16.160Z,100479.75
2022-08-12T17:59:51.496Z,100483.75
2022-08-12T18:02:25.582Z,100481.91
2022-08-12T18:05:05.028Z,100474.22
2022-08-12T18:07:39.870Z,100486.78
2022-08-12T18:10:10.662Z,100489.66
2022-08-12T18:12:42.757Z,100488.81
2022-08-12T18:15:26.530Z,100493.53
2022-08-12T18:18:17.135Z,100485.63
2022-08-12T18:20:49.761Z,100490.13
2022-08-12T18:23:23.606Z,100492.13
2022-08-12T18:26:13.919Z,100488.25
2022-08-12T18:28:48.391Z,100498.63
2022-08-12T18:31:22.885Z,100490.66
2022-08-12T18:33:54.456Z,100495.56
2022-08-12T18:36:31.890Z,100500.19
2022-08-12T18:39:04.148Z,100496.47
2022-08-12T18:41:35.408Z,100491.38
2022-08-12T18:44:09.804Z,100491.22
2022-08-12T18:47:01.835Z,100499.53
2022-08-12T18:49:39.337Z,100494.50
2022-08-12T18:52:11.887Z,100490.13
2022-08-12T18:54:49.093Z,100483.38
2022-08-12T18:58:07.204Z,100492.84
2022-08-12T19:00:18.622Z,100496.00
2022-08-12T19:02:54.133Z,100480.66
2022-08-12T19:05:24.756Z,100505.78
2022-08-12T19:11:19.052Z,100493.50
2022-08-12T19:14:01.952Z,100503.03
2022-08-12T19:16:38.155Z,100496.69
2022-08-12T19:19:11.412Z,100492.09
2022-08-12T19:21:56.459Z,100496.84
2022-08-12T19:24:46.507Z,100493.66
2022-08-12T19:27:17.705Z,100498.31
2022-08-12T19:30:06.896Z,100497.44
2022-08-12T19:32:41.151Z,100498.16
2022-08-12T19:38:07.108Z,100496.66
2022-08-12T19:40:38.603Z,100497.72
2022-08-12T19:43:19.654Z,100495.94
2022-08-12T19:45:53.851Z,100500.88
2022-08-12T19:48:27.461Z,100513.81
2022-08-12T19:51:01.435Z,100490.47
2022-08-12T19:53:40.361Z,100492.31
2022-08-12T19:56:28.105Z,100498.66
2022-08-12T19:59:15.735Z,100499.84
2022-08-12T20:02:03.144Z,100499.16
2022-08-12T20:04:37.170Z,100498.72
2022-08-12T20:07:23.683Z,100482.59
2022-08-12T20:09:54.912Z,100504.56
2022-08-12T20:12:31.578Z,100501.09
2022-08-12T20:15:05.578Z,100500.44
2022-08-12T20:17:36.253Z,100501.88
2022-08-12T20:20:21.265Z,100501.44
2022-08-12T20:23:00.104Z,100504.88
2022-08-12T20:25:58.664Z,100500.50
2022-08-12T20:28:25.336Z,100499.81
2022-08-12T20:30:59.854Z,100511.66
2022-08-12T20:33:32.599Z,100509.38
2022-08-12T20:36:40.825Z,100512.78
2022-08-12T20:39:37.157Z,100507.97
2022-08-12T20:42:07.561Z,100505.94
2022-08-12T20:44:39.881Z,100504.22
2022-08-12T20:47:18.089Z,100511.81
2022-08-12T20:49:54.837Z,100517.72
2022-08-12T20:52:35.720Z,100484.31
2022-08-12T20:55:15.893Z,100509.75
2022-08-12T20:58:02.578Z,100513.59
2022-08-12T21:00:34.337Z,100505.91
2022-08-12T21:03:34.880Z,100513.91
2022-08-12T21:06:17.550Z,100518.25
2022-08-12T21:08:47.331Z,100521.66
2022-08-12T21:11:20.263Z,100514.16
2022-08-12T21:13:49.789Z,100516.31
2022-08-12T21:16:35.327Z,100519.31
2022-08-12T21:19:07.939Z,100522.63
2022-08-12T21:21:49.959Z,100518.16
2022-08-12T21:24:20.382Z,100525.13
2022-08-12T21:27:57.850Z,100526.16
2022-08-12T21:30:37.611Z,100521.16
2022-08-12T21:33:14.623Z,100523.28
2022-08-12T21:35:50.210Z,100523.47
2022-08-12T21:38:19.750Z,100532.84
2022-08-12T21:40:53.744Z,100524.63
2022-08-12T21:43:26.656Z,100525.88
2022-08-12T21:46:08.245Z,100526.16
2022-08-12T21:48:57.586Z,100526.06
2022-08-12T21:51:48.951Z,100527.50
2022-08-12T21:54:21.969Z,100532.44
2022-08-12T21:56:52.655Z,100532.81
2022-08-12T21:59:25.105Z,100529.78
2022-08-12T22:01:54.453Z,100534.50
2022-08-12T22:04:40.701Z,100526.56
2022-08-12T22:07:19.117Z,100517.19
2022-08-12T22:09:57.228Z,100523.66
2022-08-12T22:12:37.527Z,100524.41
2022-08-12T22:15:21.886Z,100529.59
2022-08-12T22:17:55.440Z,100525.66
2022-08-12T22:20:29.617Z,100529.66
2022-08-12T22:23:04.787Z,100520.75
2022-08-12T22:25:40.052Z,100540.69
2022-08-12T22:28:24.533Z,100534.09
2022-08-12T22:31:09.102Z,100538.25
2022-08-12T22:33:53.893Z,100541.50
2022-08-12T22:36:29.128Z,100545.41
2022-08-12T22:39:00.278Z,100540.50
2022-08-12T22:41:43.169Z,100546.91
2022-08-12T22:44:27.980Z,100545.50
2022-08-12T22:47:12.233Z,100550.84
2022-08-12T22:49:53.530Z,100553.66
2022-08-12T22:52:29.193Z,100540.91
2022-08-12T22:55:05.661Z,100546.09
2022-08-12T22:57:49.308Z,100541.31
2022-08-12T23:00:28.750Z,100557.81
2022-08-12T23:03:03.564Z,100558.03
2022-08-12T23:05:57.547Z,100541.88
2022-08-12T23:08:30.206Z,100559.97
2022-08-12T23:11:04.655Z,100546.06
2022-08-12T23:13:55.091Z,100539.22
2022-08-12T23:16:31.847Z,100548.63
2022-08-12T23:19:11.035Z,100558.75
2022-08-12T23:22:06.513Z,100543.63
2022-08-12T23:24:53.925Z,100550.44
2022-08-12T23:27:50.146Z,100551.59
2022-08-12T23:30:32.379Z,100557.50
2022-08-12T23:33:13.522Z,100559.00
2022-08-12T23:35:58.880Z,100549.88
2022-08-12T23:38:34.072Z,100558.16
2022-08-12T23:41:05.381Z,100558.16
2022-08-12T23:43:39.370Z,100560.31
2022-08-12T23:46:18.441Z,100563.31
2022-08-12T23:48:52.047Z,100544.81
2022-08-12T23:51:26.325Z,100555.31
2022-08-12T23:54:06.729Z,100563.34
2022-08-12T23:56:39.084Z,100561.03
2022-08-12T23:59:16.686Z,100563.94
